sensor_id;sensor_type;location;lat;lon;timestamp;pressure;altitude;pressure_sealevel;temperature;humidity
56630;BME280;42502;40.732;-74.254;2023-05-24T00:01:26;101497.22;;;26.92;31.19
56630;BME280;42502;40.732;-74.254;2023-05-24T00:03:27;101504.09;;;26.91;31.67
56630;BME280;42502;40.732;-74.254;2023-05-24T00:05:30;101506.09;;;26.90;31.32
56630;BME280;42502;40.732;-74.254;2023-05-24T00:07:31;101505.28;;;26.90;31.46
56630;BME280;42502;40.732;-74.254;2023-05-24T00:09:32;101505.66;;;26.88;31.38
56630;BME280;42502;40.732;-74.254;2023-05-24T00:11:33;101502.03;;;26.88;31.48
56630;BME280;42502;40.732;-74.254;2023-05-24T00:13:33;101501.56;;;26.86;31.32
56630;BME280;42502;40.732;-74.254;2023-05-24T00:15:34;101504.41;;;26.86;31.59
56630;BME280;42502;40.732;-74.254;2023-05-24T00:17:35;101500.75;;;26.85;31.34
56630;BME280;42502;40.732;-74.254;2023-05-24T00:19:40;101499.94;;;26.85;31.30
56630;BME280;42502;40.732;-74.254;2023-05-24T00:21:42;101507.63;;;26.84;31.53
56630;BME280;42502;40.732;-74.254;2023-05-24T00:23:42;101511.28;;;26.85;31.50
56630;BME280;42502;40.732;-74.254;2023-05-24T00:25:43;101506.81;;;26.84;31.30
56630;BME280;42502;40.732;-74.254;2023-05-24T00:27:44;101512.47;;;26.84;31.56
56630;BME280;42502;40.732;-74.254;2023-05-24T00:29:48;101498.69;;;26.82;31.43
56630;BME280;42502;40.732;-74.254;2023-05-24T00:31:49;101501.50;;;26.82;31.34
56630;BME280;42502;40.732;-74.254;2023-05-24T00:33:50;101505.16;;;26.83;31.43
56630;BME280;42502;40.732;-74.254;2023-05-24T00:35:50;101497.41;;;26.80;31.49
56630;BME280;42502;40.732;-74.254;2023-05-24T00:37:57;101497.41;;;26.80;31.23
56630;BME280;42502;40.732;-74.254;2023-05-24T00:39:58;101507.13;;;26.79;31.49
56630;BME280;42502;40.732;-74.254;2023-05-24T00:41:59;101503.47;;;26.78;31.31
56630;BME280;42502;40.732;-74.254;2023-05-24T00:44:00;101509.13;;;26.78;31.49
56630;BME280;42502;40.732;-74.254;2023-05-24T00:46:28;101513.56;;;26.75;31.36
56630;BME280;42502;40.732;-74.254;2023-05-24T00:48:29;101510.34;;;26.77;31.38
56630;BME280;42502;40.732;-74.254;2023-05-24T00:50:30;101511.53;;;26.76;31.33
56630;BME280;42502;40.732;-74.254;2023-05-24T00:52:31;101509.06;;;26.74;31.19
56630;BME280;42502;40.732;-74.254;2023-05-24T00:54:35;101504.59;;;26.73;31.17
56630;BME280;42502;40.732;-74.254;2023-05-24T00:56:36;101504.59;;;26.73;31.44
56630;BME280;42502;40.732;-74.254;2023-05-24T00:58:39;101504.16;;;26.71;31.31
56630;BME280;42502;40.732;-74.254;2023-05-24T01:00:42;101504.97;;;26.72;31.35
56630;BME280;42502;40.732;-74.254;2023-05-24T01:02:43;101500.53;;;26.71;31.22
56630;BME280;42502;40.732;-74.254;2023-05-24T01:04:44;101505.34;;;26.70;30.95
56630;BME280;42502;40.732;-74.254;2023-05-24T01:09:16;101508.56;;;26.69;31.15
56630;BME280;42502;40.732;-74.254;2023-05-24T01:14:28;101511.78;;;26.67;31.08
56630;BME280;42502;40.732;-74.254;2023-05-24T01:16:09;101506.09;;;26.67;31.40
56630;BME280;42502;40.732;-74.254;2023-05-24T01:26:26;101526.22;;;26.62;30.93
56630;BME280;42502;40.732;-74.254;2023-05-24T01:28:32;101525.84;;;26.64;31.14
56630;BME280;42502;40.732;-74.254;2023-05-24T01:30:34;101520.56;;;26.62;31.01
56630;BME280;42502;40.732;-74.254;2023-05-24T01:32:36;101516.09;;;26.61;31.02
56630;BME280;42502;40.732;-74.254;2023-05-24T01:34:38;101518.91;;;26.61;31.24
56630;BME280;42502;40.732;-74.254;2023-05-24T01:36:41;101511.59;;;26.60;31.26
56630;BME280;42502;40.732;-74.254;2023-05-24T01:38:42;101516.47;;;26.59;30.96
56630;BME280;42502;40.732;-74.254;2023-05-24T01:40:46;101519.66;;;26.58;30.98
56630;BME280;42502;40.732;-74.254;2023-05-24T01:45:43;101522.06;;;26.56;31.08
56630;BME280;42502;40.732;-74.254;2023-05-24T01:50:30;101518.78;;;26.54;31.12
56630;BME280;42502;40.732;-74.254;2023-05-24T01:52:34;101517.59;;;26.55;31.15
56630;BME280;42502;40.732;-74.254;2023-05-24T01:54:42;101515.13;;;26.53;31.09
56630;BME280;42502;40.732;-74.254;2023-05-24T01:56:45;101510.28;;;26.54;30.82
56630;BME280;42502;40.732;-74.254;2023-05-24T01:58:49;101511.88;;;26.51;30.79
56630;BME280;42502;40.732;-74.254;2023-05-24T02:00:55;101510.66;;;26.52;31.17
56630;BME280;42502;40.732;-74.254;2023-05-24T02:02:57;101511.03;;;26.51;31.03
56630;BME280;42502;40.732;-74.254;2023-05-24T02:04:58;101513.84;;;26.51;31.02
56630;BME280;42502;40.732;-74.254;2023-05-24T02:06:58;101508.19;;;26.51;30.88
56630;BME280;42502;40.732;-74.254;2023-05-24T02:08:59;101506.56;;;26.50;31.23
56630;BME280;42502;40.732;-74.254;2023-05-24T02:11:00;101504.13;;;26.48;30.80
56630;BME280;42502;40.732;-74.254;2023-05-24T02:13:02;101505.31;;;26.47;30.91
56630;BME280;42502;40.732;-74.254;2023-05-24T02:15:03;101501.66;;;26.47;31.05
56630;BME280;42502;40.732;-74.254;2023-05-24T02:17:04;101496.00;;;26.47;31.12
56630;BME280;42502;40.732;-74.254;2023-05-24T02:19:05;101493.16;;;26.47;30.90
56630;BME280;42502;40.732;-74.254;2023-05-24T02:21:08;101493.53;;;26.45;30.97
56630;BME280;42502;40.732;-74.254;2023-05-24T02:23:09;101482.19;;;26.45;30.74
56630;BME280;42502;40.732;-74.254;2023-05-24T02:25:10;101482.19;;;26.45;31.03
56630;BME280;42502;40.732;-74.254;2023-05-24T02:27:11;101482.97;;;26.42;30.58
56630;BME280;42502;40.732;-74.254;2023-05-24T02:29:11;101477.28;;;26.42;30.77
56630;BME280;42502;40.732;-74.254;2023-05-24T02:31:12;101473.63;;;26.41;30.76
56630;BME280;42502;40.732;-74.254;2023-05-24T02:33:13;101467.16;;;26.41;30.64
56630;BME280;42502;40.732;-74.254;2023-05-24T02:35:14;101464.31;;;26.41;30.71
56630;BME280;42502;40.732;-74.254;2023-05-24T02:37:15;101467.53;;;26.39;30.85
56630;BME280;42502;40.732;-74.254;2023-05-24T02:39:16;101466.72;;;26.39;30.99
56630;BME280;42502;40.732;-74.254;2023-05-24T02:41:17;101455.75;;;26.37;30.67
56630;BME280;42502;40.732;-74.254;2023-05-24T02:43:18;101460.59;;;26.37;30.67
56630;BME280;42502;40.732;-74.254;2023-05-24T02:45:19;101449.63;;;26.35;30.55
56630;BME280;42502;40.732;-74.254;2023-05-24T02:47:19;101457.31;;;26.35;30.68
56630;BME280;42502;40.732;-74.254;2023-05-24T02:49:20;101452.84;;;26.34;30.63
56630;BME280;42502;40.732;-74.254;2023-05-24T02:51:21;101454.88;;;26.33;30.56
56630;BME280;42502;40.732;-74.254;2023-05-24T02:53:24;101450.38;;;26.32;30.80
56630;BME280;42502;40.732;-74.254;2023-05-24T02:55:25;101456.03;;;26.32;30.68
56630;BME280;42502;40.732;-74.254;2023-05-24T02:57:28;101444.28;;;26.30;30.84
56630;BME280;42502;40.732;-74.254;2023-05-24T02:59:29;101445.47;;;26.29;30.71
56630;BME280;42502;40.732;-74.254;2023-05-24T03:01:31;101434.91;;;26.26;30.69
56630;BME280;42502;40.732;-74.254;2023-05-24T03:03:33;101437.72;;;26.26;30.63
56630;BME280;42502;40.732;-74.254;2023-05-24T03:05:34;101429.22;;;26.26;30.73
56630;BME280;42502;40.732;-74.254;2023-05-24T03:07:34;101425.59;;;26.26;30.75
56630;BME280;42502;40.732;-74.254;2023-05-24T03:09:35;101422.75;;;26.26;30.47
56630;BME280;42502;40.732;-74.254;2023-05-24T03:11:36;101416.63;;;26.23;30.51
56630;BME280;42502;40.732;-74.254;2023-05-24T03:13:37;101419.47;;;26.23;30.50
56630;BME280;42502;40.732;-74.254;2023-05-24T03:15:38;101419.84;;;26.22;30.46
56630;BME280;42502;40.732;-74.254;2023-05-24T03:17:41;101412.56;;;26.21;30.47
56630;BME280;42502;40.732;-74.254;2023-05-24T03:19:47;101405.25;;;26.20;30.40
56630;BME280;42502;40.732;-74.254;2023-05-24T03:21:48;101404.44;;;26.19;30.37
56630;BME280;42502;40.732;-74.254;2023-05-24T03:23:49;101387.81;;;26.18;30.53
56630;BME280;42502;40.732;-74.254;2023-05-24T03:25:49;101384.53;;;26.16;30.40
56630;BME280;42502;40.732;-74.254;2023-05-24T03:27:50;101386.19;;;26.17;30.25
56630;BME280;42502;40.732;-74.254;2023-05-24T03:29:51;101390.19;;;26.16;30.30
56630;BME280;42502;40.732;-74.254;2023-05-24T03:31:52;101386.56;;;26.15;30.50
56630;BME280;42502;40.732;-74.254;2023-05-24T03:33:53;101384.09;;;26.14;30.42
56630;BME280;42502;40.732;-74.254;2023-05-24T03:35:54;101386.13;;;26.13;30.36
56630;BME280;42502;40.732;-74.254;2023-05-24T03:37:55;101370.31;;;26.12;30.44
56630;BME280;42502;40.732;-74.254;2023-05-24T03:39:56;101376.34;;;26.11;30.31
56630;BME280;42502;40.732;-74.254;2023-05-24T03:41:56;101365.03;;;26.11;30.39
56630;BME280;42502;40.732;-74.254;2023-05-24T03:43:59;101366.22;;;26.10;30.50
56630;BME280;42502;40.732;-74.254;2023-05-24T03:46:00;101358.94;;;26.09;30.36
56630;BME280;42502;40.732;-74.254;2023-05-24T03:48:03;101349.97;;;26.06;30.50
56630;BME280;42502;40.732;-74.254;2023-05-24T03:50:05;101348.38;;;26.05;30.41
56630;BME280;42502;40.732;-74.254;2023-05-24T03:52:05;101345.53;;;26.05;30.12
56630;BME280;42502;40.732;-74.254;2023-05-24T03:54:06;101347.53;;;26.05;30.27
56630;BME280;42502;40.732;-74.254;2023-05-24T03:56:07;101353.56;;;26.03;30.34
56630;BME280;42502;40.732;-74.254;2023-05-24T03:58:08;101341.44;;;26.03;30.32
56630;BME280;42502;40.732;-74.254;2023-05-24T04:00:12;101338.97;;;26.01;30.13
56630;BME280;42502;40.732;-74.254;2023-05-24T04:02:13;101340.97;;;26.01;30.21
56630;BME280;42502;40.732;-74.254;2023-05-24T04:04:14;101330.03;;;25.99;30.30
56630;BME280;42502;40.732;-74.254;2023-05-24T04:06:15;101326.38;;;25.99;30.19
56630;BME280;42502;40.732;-74.254;2023-05-24T04:08:15;101334.06;;;25.98;30.06
56630;BME280;42502;40.732;-74.254;2023-05-24T04:10:16;101328.75;;;25.97;30.37
56630;BME280;42502;40.732;-74.254;2023-05-24T04:12:17;101332.78;;;25.96;30.36
56630;BME280;42502;40.732;-74.254;2023-05-24T04:14:20;101321.81;;;25.94;29.98
56630;BME280;42502;40.732;-74.254;2023-05-24T04:16:22;101316.53;;;25.93;30.26
56630;BME280;42502;40.732;-74.254;2023-05-24T04:18:26;101310.50;;;25.94;30.20
56630;BME280;42502;40.732;-74.254;2023-05-24T04:20:27;101318.19;;;25.94;30.21
56630;BME280;42502;40.732;-74.254;2023-05-24T04:22:29;101320.56;;;25.92;30.32
56630;BME280;42502;40.732;-74.254;2023-05-24T04:24:29;101320.56;;;25.92;30.19
56630;BME280;42502;40.732;-74.254;2023-05-24T04:26:31;101318.94;;;25.91;30.31
56630;BME280;42502;40.732;-74.254;2023-05-24T04:28:33;101319.31;;;25.89;30.05
56630;BME280;42502;40.732;-74.254;2023-05-24T04:30:35;101310.34;;;25.87;30.28
56630;BME280;42502;40.732;-74.254;2023-05-24T04:32:36;101310.34;;;25.87;29.97
56630;BME280;42502;40.732;-74.254;2023-05-24T04:34:39;101305.91;;;25.86;30.27
56630;BME280;42502;40.732;-74.254;2023-05-24T04:36:42;101303.09;;;25.86;30.31
56630;BME280;42502;40.732;-74.254;2023-05-24T04:38:43;101311.13;;;25.84;30.13
56630;BME280;42502;40.732;-74.254;2023-05-24T04:40:45;101311.94;;;25.84;30.25
56630;BME280;42502;40.732;-74.254;2023-05-24T04:42:46;101306.66;;;25.83;30.11
56630;BME280;42502;40.732;-74.254;2023-05-24T04:44:47;101296.91;;;25.80;30.14
56630;BME280;42502;40.732;-74.254;2023-05-24T04:46:48;101295.25;;;25.79;30.01
56630;BME280;42502;40.732;-74.254;2023-05-24T04:48:49;101294.88;;;25.81;30.00
56630;BME280;42502;40.732;-74.254;2023-05-24T04:50:50;101292.44;;;25.79;30.02
56630;BME280;42502;40.732;-74.254;2023-05-24T04:52:51;101294.47;;;25.79;29.99
56630;BME280;42502;40.732;-74.254;2023-05-24T04:54:52;101292.00;;;25.77;30.12
56630;BME280;42502;40.732;-74.254;2023-05-24T04:56:54;101294.84;;;25.77;30.11
56630;BME280;42502;40.732;-74.254;2023-05-24T04:58:55;101290.34;;;25.76;30.21
56630;BME280;42502;40.732;-74.254;2023-05-24T05:00:56;101291.94;;;25.74;29.99
56630;BME280;42502;40.732;-74.254;2023-05-24T05:02:57;101293.94;;;25.73;30.02
56630;BME280;42502;40.732;-74.254;2023-05-24T05:04:58;101290.31;;;25.73;29.96
56630;BME280;42502;40.732;-74.254;2023-05-24T05:06:59;101285.81;;;25.71;30.05
56630;BME280;42502;40.732;-74.254;2023-05-24T05:09:02;101285.81;;;25.71;30.14
56630;BME280;42502;40.732;-74.254;2023-05-24T05:11:09;101281.34;;;25.70;29.86
56630;BME280;42502;40.732;-74.254;2023-05-24T05:13:09;101279.72;;;25.69;29.96
56630;BME280;42502;40.732;-74.254;2023-05-24T05:15:10;101288.22;;;25.69;29.67
56630;BME280;42502;40.732;-74.254;2023-05-24T05:17:12;101287.38;;;25.69;29.78
56630;BME280;42502;40.732;-74.254;2023-05-24T05:19:13;101288.59;;;25.68;30.18
56630;BME280;42502;40.732;-74.254;2023-05-24T05:21:14;101283.31;;;25.66;29.73
56630;BME280;42502;40.732;-74.254;2023-05-24T05:23:15;101283.31;;;25.66;29.78
56630;BME280;42502;40.732;-74.254;2023-05-24T05:25:16;101282.47;;;25.66;30.12
56630;BME280;42502;40.732;-74.254;2023-05-24T05:27:17;101276.38;;;25.64;29.82
56630;BME280;42502;40.732;-74.254;2023-05-24T05:29:18;101274.75;;;25.63;29.73
56630;BME280;42502;40.732;-74.254;2023-05-24T05:31:19;101271.09;;;25.62;30.14
56630;BME280;42502;40.732;-74.254;2023-05-24T05:33:20;101269.09;;;25.63;29.82
56630;BME280;42502;40.732;-74.254;2023-05-24T05:35:21;101258.13;;;25.61;29.84
56630;BME280;42502;40.732;-74.254;2023-05-24T05:37:25;101251.25;;;25.59;30.16
56630;BME280;42502;40.732;-74.254;2023-05-24T05:39:25;101250.88;;;25.60;29.93
56630;BME280;42502;40.732;-74.254;2023-05-24T05:41:39;101250.88;;;25.60;29.89
56630;BME280;42502;40.732;-74.254;2023-05-24T05:43:43;101246.38;;;25.59;29.90
56630;BME280;42502;40.732;-74.254;2023-05-24T05:45:44;101241.91;;;25.58;29.84
56630;BME280;42502;40.732;-74.254;2023-05-24T05:47:44;101242.28;;;25.57;30.01
56630;BME280;42502;40.732;-74.254;2023-05-24T05:49:45;101243.50;;;25.56;29.85
56630;BME280;42502;40.732;-74.254;2023-05-24T05:51:46;101246.72;;;25.54;29.72
56630;BME280;42502;40.732;-74.254;2023-05-24T05:53:47;101239.41;;;25.53;29.70
56630;BME280;42502;40.732;-74.254;2023-05-24T05:55:48;101238.97;;;25.51;29.77
56630;BME280;42502;40.732;-74.254;2023-05-24T05:57:48;101234.94;;;25.52;29.77
56630;BME280;42502;40.732;-74.254;2023-05-24T05:59:49;101235.31;;;25.50;29.91
56630;BME280;42502;40.732;-74.254;2023-05-24T06:01:50;101233.31;;;25.51;29.96
56630;BME280;42502;40.732;-74.254;2023-05-24T06:03:51;101227.19;;;25.49;30.05
56630;BME280;42502;40.732;-74.254;2023-05-24T06:05:52;101231.25;;;25.48;29.61
56630;BME280;42502;40.732;-74.254;2023-05-24T06:07:53;101232.41;;;25.47;30.02
56630;BME280;42502;40.732;-74.254;2023-05-24T06:09:54;101233.59;;;25.46;29.69
56630;BME280;42502;40.732;-74.254;2023-05-24T06:11:55;101237.66;;;25.45;29.95
56630;BME280;42502;40.732;-74.254;2023-05-24T06:13:55;101227.53;;;25.44;29.94
56630;BME280;42502;40.732;-74.254;2023-05-24T06:15:59;101220.22;;;25.43;29.67
56630;BME280;42502;40.732;-74.254;2023-05-24T06:18:00;101229.91;;;25.42;29.71
56630;BME280;42502;40.732;-74.254;2023-05-24T06:20:04;101221.44;;;25.42;30.00
56630;BME280;42502;40.732;-74.254;2023-05-24T06:22:11;101220.16;;;25.39;29.98
56630;BME280;42502;40.732;-74.254;2023-05-24T06:24:15;101213.66;;;25.39;29.64
56630;BME280;42502;40.732;-74.254;2023-05-24T06:26:19;101220.53;;;25.38;29.69
56630;BME280;42502;40.732;-74.254;2023-05-24T06:28:21;101211.22;;;25.37;29.69
56630;BME280;42502;40.732;-74.254;2023-05-24T06:30:22;101207.56;;;25.36;29.85
56630;BME280;42502;40.732;-74.254;2023-05-24T06:32:23;101202.66;;;25.33;29.79
56630;BME280;42502;40.732;-74.254;2023-05-24T06:34:24;101202.66;;;25.33;29.88
56630;BME280;42502;40.732;-74.254;2023-05-24T06:36:25;101194.56;;;25.32;29.73
56630;BME280;42502;40.732;-74.254;2023-05-24T06:38:26;101199.41;;;25.31;29.60
56630;BME280;42502;40.732;-74.254;2023-05-24T06:40:27;101204.22;;;25.31;29.72
56630;BME280;42502;40.732;-74.254;2023-05-24T06:42:28;101209.06;;;25.30;29.76
56630;BME280;42502;40.732;-74.254;2023-05-24T06:44:29;101196.13;;;25.29;29.83
56630;BME280;42502;40.732;-74.254;2023-05-24T06:46:33;101192.44;;;25.29;29.60
56630;BME280;42502;40.732;-74.254;2023-05-24T06:48:34;101186.00;;;25.28;29.86
56630;BME280;42502;40.732;-74.254;2023-05-24T06:50:35;101185.91;;;25.25;29.66
56630;BME280;42502;40.732;-74.254;2023-05-24T06:52:36;101196.84;;;25.26;29.70
56630;BME280;42502;40.732;-74.254;2023-05-24T06:54:37;101193.56;;;25.24;29.74
56630;BME280;42502;40.732;-74.254;2023-05-24T06:56:38;101186.28;;;25.23;29.74
56630;BME280;42502;40.732;-74.254;2023-05-24T06:58:39;101188.66;;;25.21;29.59
56630;BME280;42502;40.732;-74.254;2023-05-24T07:00:41;101178.16;;;25.22;29.78
56630;BME280;42502;40.732;-74.254;2023-05-24T07:02:42;101182.59;;;25.19;29.75
56630;BME280;42502;40.732;-74.254;2023-05-24T07:04:43;101184.56;;;25.18;29.53
56630;BME280;42502;40.732;-74.254;2023-05-24T07:06:43;101189.41;;;25.18;29.80
56630;BME280;42502;40.732;-74.254;2023-05-24T07:08:47;101186.97;;;25.16;29.85
56630;BME280;42502;40.732;-74.254;2023-05-24T07:10:48;101179.66;;;25.15;29.79
56630;BME280;42502;40.732;-74.254;2023-05-24T07:12:48;101175.22;;;25.14;29.52
56630;BME280;42502;40.732;-74.254;2023-05-24T07:14:49;101181.25;;;25.13;29.78
56630;BME280;42502;40.732;-74.254;2023-05-24T07:16:51;101188.09;;;25.12;29.67
56630;BME280;42502;40.732;-74.254;2023-05-24T07:18:53;101187.28;;;25.11;29.79
56630;BME280;42502;40.732;-74.254;2023-05-24T07:20:54;101186.44;;;25.11;29.94
56630;BME280;42502;40.732;-74.254;2023-05-24T07:22:55;101177.53;;;25.09;29.79
56630;BME280;42502;40.732;-74.254;2023-05-24T07:24:56;101176.69;;;25.08;29.74
56630;BME280;42502;40.732;-74.254;2023-05-24T07:26:57;101165.75;;;25.07;29.67
56630;BME280;42502;40.732;-74.254;2023-05-24T07:28:58;101161.69;;;25.04;29.52
56630;BME280;42502;40.732;-74.254;2023-05-24T07:30:59;101172.63;;;25.06;29.85
56630;BME280;42502;40.732;-74.254;2023-05-24T07:33:00;101161.69;;;25.04;29.62
56630;BME280;42502;40.732;-74.254;2023-05-24T07:35:01;101167.72;;;25.03;29.63
56630;BME280;42502;40.732;-74.254;2023-05-24T07:37:01;101171.72;;;25.01;29.66
56630;BME280;42502;40.732;-74.254;2023-05-24T07:39:02;101168.47;;;24.99;29.73
56630;BME280;42502;40.732;-74.254;2023-05-24T07:41:06;101169.28;;;25.00;29.59
56630;BME280;42502;40.732;-74.254;2023-05-24T07:43:06;101162.81;;;24.99;29.72
56630;BME280;42502;40.732;-74.254;2023-05-24T07:45:13;101159.53;;;24.97;29.51
56630;BME280;42502;40.732;-74.254;2023-05-24T07:47:14;101157.91;;;24.96;29.54
56630;BME280;42502;40.732;-74.254;2023-05-24T07:49:15;101154.63;;;24.94;29.80
56630;BME280;42502;40.732;-74.254;2023-05-24T07:51:16;101151.00;;;24.94;29.73
56630;BME280;42502;40.732;-74.254;2023-05-24T07:53:18;101148.53;;;24.92;29.62
56630;BME280;42502;40.732;-74.254;2023-05-24T07:55:25;101153.38;;;24.92;29.70
56630;BME280;42502;40.732;-74.254;2023-05-24T07:57:27;101145.28;;;24.90;29.88
56630;BME280;42502;40.732;-74.254;2023-05-24T07:59:28;101141.25;;;24.91;29.62
56630;BME280;42502;40.732;-74.254;2023-05-24T08:01:33;101142.00;;;24.88;29.74
56630;BME280;42502;40.732;-74.254;2023-05-24T08:03:34;101136.72;;;24.87;29.70
56630;BME280;42502;40.732;-74.254;2023-05-24T08:05:38;101141.56;;;24.86;29.25
56630;BME280;42502;40.732;-74.254;2023-05-24T08:07:40;101136.28;;;24.85;29.46
56630;BME280;42502;40.732;-74.254;2023-05-24T08:09:41;101133.44;;;24.85;29.56
56630;BME280;42502;40.732;-74.254;2023-05-24T08:11:41;101134.63;;;24.83;29.63
56630;BME280;42502;40.732;-74.254;2023-05-24T08:13:43;101124.91;;;24.81;29.92
56630;BME280;42502;40.732;-74.254;2023-05-24T08:15:44;101131.38;;;24.81;29.73
56630;BME280;42502;40.732;-74.254;2023-05-24T08:17:45;101136.59;;;24.79;29.58
56630;BME280;42502;40.732;-74.254;2023-05-24T08:19:45;101132.94;;;24.79;29.65
56630;BME280;42502;40.732;-74.254;2023-05-24T08:21:49;101124.81;;;24.77;29.81
56630;BME280;42502;40.732;-74.254;2023-05-24T08:23:50;101135.31;;;24.77;29.75
56630;BME280;42502;40.732;-74.254;2023-05-24T08:25:51;101133.66;;;24.76;29.62
56630;BME280;42502;40.732;-74.254;2023-05-24T08:27:53;101125.56;;;24.74;29.67
56630;BME280;42502;40.732;-74.254;2023-05-24T08:29:55;101130.78;;;24.72;29.81
56630;BME280;42502;40.732;-74.254;2023-05-24T08:31:55;101122.31;;;24.72;29.50
56630;BME280;42502;40.732;-74.254;2023-05-24T08:33:57;101132.78;;;24.72;29.54
56630;BME280;42502;40.732;-74.254;2023-05-24T08:35:57;101125.50;;;24.71;29.61
56630;BME280;42502;40.732;-74.254;2023-05-24T08:37:58;101135.97;;;24.70;29.56
56630;BME280;42502;40.732;-74.254;2023-05-24T08:40:00;101133.53;;;24.69;29.68
56630;BME280;42502;40.732;-74.254;2023-05-24T08:42:01;101132.72;;;24.68;29.67
56630;BME280;42502;40.732;-74.254;2023-05-24T08:44:05;101148.84;;;24.68;29.89
56630;BME280;42502;40.732;-74.254;2023-05-24T08:46:09;101141.56;;;24.67;29.39
56630;BME280;42502;40.732;-74.254;2023-05-24T08:48:12;101136.28;;;24.65;29.55
56630;BME280;42502;40.732;-74.254;2023-05-24T08:50:14;101134.63;;;24.64;29.71
56630;BME280;42502;40.732;-74.254;2023-05-24T08:52:15;101124.06;;;24.61;29.54
56630;BME280;42502;40.732;-74.254;2023-05-24T08:54:18;101123.72;;;24.62;29.44
56630;BME280;42502;40.732;-74.254;2023-05-24T08:56:20;101130.94;;;24.60;29.40
56630;BME280;42502;40.732;-74.254;2023-05-24T08:58:23;101138.56;;;24.59;29.58
56630;BME280;42502;40.732;-74.254;2023-05-24T09:00:24;101129.28;;;24.59;29.68
56630;BME280;42502;40.732;-74.254;2023-05-24T09:02:25;101133.28;;;24.58;29.61
56630;BME280;42502;40.732;-74.254;2023-05-24T09:04:26;101132.47;;;24.57;29.77
56630;BME280;42502;40.732;-74.254;2023-05-24T09:06:30;101134.84;;;24.55;29.71
56630;BME280;42502;40.732;-74.254;2023-05-24T09:08:31;101129.09;;;24.52;29.49
56630;BME280;42502;40.732;-74.254;2023-05-24T09:10:35;101134.38;;;24.53;29.71
56630;BME280;42502;40.732;-74.254;2023-05-24T09:12:37;101133.56;;;24.53;29.69
56630;BME280;42502;40.732;-74.254;2023-05-24T09:14:44;101128.28;;;24.51;29.51
56630;BME280;42502;40.732;-74.254;2023-05-24T09:16:45;101126.66;;;24.50;29.75
56630;BME280;42502;40.732;-74.254;2023-05-24T09:18:46;101117.75;;;24.48;29.76
56630;BME280;42502;40.732;-74.254;2023-05-24T09:20:47;101119.38;;;24.49;29.63
56630;BME280;42502;40.732;-74.254;2023-05-24T09:22:50;101118.47;;;24.45;29.29
56630;BME280;42502;40.732;-74.254;2023-05-24T09:24:56;101114.44;;;24.46;29.65
56630;BME280;42502;40.732;-74.254;2023-05-24T09:27:04;101120.47;;;24.44;29.46
56630;BME280;42502;40.732;-74.254;2023-05-24T09:29:07;101119.66;;;24.44;29.53
56630;BME280;42502;40.732;-74.254;2023-05-24T09:31:08;101121.69;;;24.43;29.44
56630;BME280;42502;40.732;-74.254;2023-05-24T09:33:09;101119.22;;;24.42;29.37
56630;BME280;42502;40.732;-74.254;2023-05-24T09:35:10;101121.59;;;24.40;29.66
56630;BME280;42502;40.732;-74.254;2023-05-24T09:37:16;101115.13;;;24.39;29.54
56630;BME280;42502;40.732;-74.254;2023-05-24T09:39:18;101112.69;;;24.38;29.49
56630;BME280;42502;40.732;-74.254;2023-05-24T09:41:20;101125.16;;;24.37;29.47
56630;BME280;42502;40.732;-74.254;2023-05-24T09:43:21;101128.81;;;24.37;29.73
56630;BME280;42502;40.732;-74.254;2023-05-24T09:45:23;101125.06;;;24.33;29.69
56630;BME280;42502;40.732;-74.254;2023-05-24T09:47:30;101127.09;;;24.33;29.75
56630;BME280;42502;40.732;-74.254;2023-05-24T09:49:35;101127.09;;;24.33;29.74
56630;BME280;42502;40.732;-74.254;2023-05-24T09:51:36;101116.97;;;24.32;29.55
56630;BME280;42502;40.732;-74.254;2023-05-24T09:53:45;101123.00;;;24.30;29.73
56630;BME280;42502;40.732;-74.254;2023-05-24T09:55:47;101127.47;;;24.31;29.61
56630;BME280;42502;40.732;-74.254;2023-05-24T09:58:01;101119.72;;;24.28;29.44
56630;BME280;42502;40.732;-74.254;2023-05-24T10:00:06;101122.56;;;24.28;29.37
56630;BME280;42502;40.732;-74.254;2023-05-24T10:02:14;101112.44;;;24.27;29.58
56630;BME280;42502;40.732;-74.254;2023-05-24T10:04:17;101112.81;;;24.25;29.29
56630;BME280;42502;40.732;-74.254;2023-05-24T10:06:19;101104.34;;;24.25;29.68
56630;BME280;42502;40.732;-74.254;2023-05-24T10:08:20;101107.53;;;24.24;29.76
56630;BME280;42502;40.732;-74.254;2023-05-24T10:10:21;101099.06;;;24.24;29.58
56630;BME280;42502;40.732;-74.254;2023-05-24T10:12:22;101111.91;;;24.21;29.53
56630;BME280;42502;40.732;-74.254;2023-05-24T10:14:25;101114.72;;;24.21;29.58
56630;BME280;42502;40.732;-74.254;2023-05-24T10:16:27;101115.94;;;24.20;29.66
56630;BME280;42502;40.732;-74.254;2023-05-24T10:18:28;101122.75;;;24.19;29.75
56630;BME280;42502;40.732;-74.254;2023-05-24T10:20:30;101114.66;;;24.18;29.76
56630;BME280;42502;40.732;-74.254;2023-05-24T10:22:31;101119.47;;;24.17;29.76
56630;BME280;42502;40.732;-74.254;2023-05-24T10:24:43;101114.56;;;24.14;29.50
56630;BME280;42502;40.732;-74.254;2023-05-24T10:26:46;101120.69;;;24.16;29.67
56630;BME280;42502;40.732;-74.254;2023-05-24T10:28:53;101110.13;;;24.13;29.51
56630;BME280;42502;40.732;-74.254;2023-05-24T10:31:14;101106.81;;;24.11;29.62
56630;BME280;42502;40.732;-74.254;2023-05-24T10:33:17;101110.84;;;24.10;29.57
56630;BME280;42502;40.732;-74.254;2023-05-24T10:35:19;101115.31;;;24.11;29.84
56630;BME280;42502;40.732;-74.254;2023-05-24T10:37:20;101112.84;;;24.09;29.73
56630;BME280;42502;40.732;-74.254;2023-05-24T10:39:21;101111.22;;;24.08;29.63
56630;BME280;42502;40.732;-74.254;2023-05-24T10:41:24;101103.94;;;24.07;29.60